sensor_id;sensor_type;location;lat;lon;timestamp;temperature;humidity
20483;DHT22;10400;53.198;6.592;2024-01-16T00:01:05;1.60;99.90
20483;DHT22;10400;53.198;6.592;2024-01-16T00:03:31;1.60;99.90
20483;DHT22;10400;53.198;6.592;2024-01-16T00:05:57;1.50;99.90
20483;DHT22;10400;53.198;6.592;2024-01-16T00:08:23;1.50;99.90
20483;DHT22;10400;53.198;6.592;2024-01-16T00:10:50;1.50;99.90
20483;DHT22;10400;53.198;6.592;2024-01-16T00:13:16;1.50;99.90
20483;DHT22;10400;53.198;6.592;2024-01-16T00:15:42;1.50;99.90
20483;DHT22;10400;53.198;6.592;2024-01-16T00:18:08;1.40;99.90
20483;DHT22;10400;53.198;6.592;2024-01-16T00:20:34;1.40;99.90
20483;DHT22;10400;53.198;6.592;2024-01-16T00:23:00;1.40;99.90
20483;DHT22;10400;53.198;6.592;2024-01-16T00:25:26;1.30;99.90
20483;DHT22;10400;53.198;6.592;2024-01-16T00:27:52;1.30;99.90
20483;DHT22;10400;53.198;6.592;2024-01-16T00:30:18;1.30;99.90
20483;DHT22;10400;53.198;6.592;2024-01-16T00:32:43;1.30;99.90
20483;DHT22;10400;53.198;6.592;2024-01-16T00:35:09;1.30;99.90
20483;DHT22;10400;53.198;6.592;2024-01-16T00:37:38;1.30;99.90
20483;DHT22;10400;53.198;6.592;2024-01-16T00:40:04;1.30;99.90
20483;DHT22;10400;53.198;6.592;2024-01-16T00:42:33;1.30;99.90
20483;DHT22;10400;53.198;6.592;2024-01-16T00:44:58;1.20;99.90
20483;DHT22;10400;53.198;6.592;2024-01-16T00:47:24;1.30;99.90
20483;DHT22;10400;53.198;6.592;2024-01-16T00:49:50;1.20;99.90
20483;DHT22;10400;53.198;6.592;2024-01-16T00:52:16;1.20;99.90
20483;DHT22;10400;53.198;6.592;2024-01-16T00:54:42;1.20;99.90
20483;DHT22;10400;53.198;6.592;2024-01-16T00:57:08;1.20;99.90
20483;DHT22;10400;53.198;6.592;2024-01-16T00:59:34;1.20;99.90
20483;DHT22;10400;53.198;6.592;2024-01-16T01:01:59;1.20;99.90
20483;DHT22;10400;53.198;6.592;2024-01-16T01:04:25;1.30;99.90
20483;DHT22;10400;53.198;6.592;2024-01-16T01:06:50;1.30;99.90
20483;DHT22;10400;53.198;6.592;2024-01-16T01:09:16;1.40;99.90
20483;DHT22;10400;53.198;6.592;2024-01-16T01:11:42;1.40;99.90
20483;DHT22;10400;53.198;6.592;2024-01-16T01:14:08;1.30;99.90
20483;DHT22;10400;53.198;6.592;2024-01-16T01:16:33;1.30;99.90
20483;DHT22;10400;53.198;6.592;2024-01-16T01:18:59;1.30;99.90
20483;DHT22;10400;53.198;6.592;2024-01-16T01:21:25;1.20;99.90
20483;DHT22;10400;53.198;6.592;2024-01-16T01:23:51;1.10;99.90
20483;DHT22;10400;53.198;6.592;2024-01-16T01:26:16;1.10;99.90
20483;DHT22;10400;53.198;6.592;2024-01-16T01:28:45;1.10;99.90
20483;DHT22;10400;53.198;6.592;2024-01-16T01:31:11;1.10;99.90
20483;DHT22;10400;53.198;6.592;2024-01-16T01:33:37;1.10;99.90
20483;DHT22;10400;53.198;6.592;2024-01-16T01:36:03;1.10;99.90
20483;DHT22;10400;53.198;6.592;2024-01-16T01:38:29;1.10;99.90
20483;DHT22;10400;53.198;6.592;2024-01-16T01:40:54;1.10;99.90
20483;DHT22;10400;53.198;6.592;2024-01-16T01:43:21;1.10;99.90
20483;DHT22;10400;53.198;6.592;2024-01-16T01:46:08;1.10;99.90
20483;DHT22;10400;53.198;6.592;2024-01-16T01:48:34;1.10;99.90
20483;DHT22;10400;53.198;6.592;2024-01-16T01:51:01;1.10;99.90
20483;DHT22;10400;53.198;6.592;2024-01-16T01:53:28;1.10;99.90
20483;DHT22;10400;53.198;6.592;2024-01-16T01:55:55;1.00;99.90
20483;DHT22;10400;53.198;6.592;2024-01-16T01:58:21;1.00;99.90
20483;DHT22;10400;53.198;6.592;2024-01-16T02:00:46;1.00;99.90
20483;DHT22;10400;53.198;6.592;2024-01-16T02:03:12;1.00;99.90
20483;DHT22;10400;53.198;6.592;2024-01-16T02:05:39;1.00;99.90
20483;DHT22;10400;53.198;6.592;2024-01-16T02:08:05;1.00;99.90
20483;DHT22;10400;53.198;6.592;2024-01-16T02:10:31;1.00;99.90
20483;DHT22;10400;53.198;6.592;2024-01-16T02:12:57;1.00;99.90
20483;DHT22;10400;53.198;6.592;2024-01-16T02:15:24;1.00;99.90
20483;DHT22;10400;53.198;6.592;2024-01-16T02:17:49;1.00;99.90
20483;DHT22;10400;53.198;6.592;2024-01-16T02:20:16;1.00;99.90
20483;DHT22;10400;53.198;6.592;2024-01-16T02:22:45;1.00;99.90
20483;DHT22;10400;53.198;6.592;2024-01-16T02:25:13;1.00;99.90
20483;DHT22;10400;53.198;6.592;2024-01-16T02:27:39;1.00;99.90
20483;DHT22;10400;53.198;6.592;2024-01-16T02:30:05;1.00;99.90
20483;DHT22;10400;53.198;6.592;2024-01-16T02:32:31;1.00;99.90
20483;DHT22;10400;53.198;6.592;2024-01-16T02:34:58;1.00;99.90
20483;DHT22;10400;53.198;6.592;2024-01-16T02:37:24;1.10;99.90
20483;DHT22;10400;53.198;6.592;2024-01-16T02:39:50;1.10;99.90
20483;DHT22;10400;53.198;6.592;2024-01-16T02:42:15;1.10;99.90
20483;DHT22;10400;53.198;6.592;2024-01-16T02:44:41;1.10;99.90
20483;DHT22;10400;53.198;6.592;2024-01-16T02:47:07;1.00;99.90
20483;DHT22;10400;53.198;6.592;2024-01-16T02:49:33;1.00;99.90
20483;DHT22;10400;53.198;6.592;2024-01-16T02:51:58;1.00;99.90
20483;DHT22;10400;53.198;6.592;2024-01-16T02:54:24;1.10;99.90
20483;DHT22;10400;53.198;6.592;2024-01-16T02:56:50;1.10;99.90
20483;DHT22;10400;53.198;6.592;2024-01-16T02:59:16;1.10;99.90
20483;DHT22;10400;53.198;6.592;2024-01-16T03:01:42;1.00;99.90
20483;DHT22;10400;53.198;6.592;2024-01-16T03:04:08;1.00;99.90
20483;DHT22;10400;53.198;6.592;2024-01-16T03:06:34;1.00;99.90
20483;DHT22;10400;53.198;6.592;2024-01-16T03:09:00;1.00;99.90
20483;DHT22;10400;53.198;6.592;2024-01-16T03:11:25;0.90;99.90
20483;DHT22;10400;53.198;6.592;2024-01-16T03:13:51;0.80;99.90
20483;DHT22;10400;53.198;6.592;2024-01-16T03:16:18;0.80;99.90
20483;DHT22;10400;53.198;6.592;2024-01-16T03:18:44;0.80;99.90
20483;DHT22;10400;53.198;6.592;2024-01-16T03:21:14;0.80;99.90
20483;DHT22;10400;53.198;6.592;2024-01-16T03:23:39;0.80;99.90
20483;DHT22;10400;53.198;6.592;2024-01-16T03:26:05;0.80;99.90
20483;DHT22;10400;53.198;6.592;2024-01-16T03:28:31;0.80;99.90
20483;DHT22;10400;53.198;6.592;2024-01-16T03:30:56;0.80;99.90
20483;DHT22;10400;53.198;6.592;2024-01-16T03:33:22;0.70;99.90
20483;DHT22;10400;53.198;6.592;2024-01-16T03:35:48;0.80;99.90
20483;DHT22;10400;53.198;6.592;2024-01-16T03:38:14;0.70;99.90
20483;DHT22;10400;53.198;6.592;2024-01-16T03:40:39;0.70;99.90
20483;DHT22;10400;53.198;6.592;2024-01-16T03:43:05;0.70;99.90
20483;DHT22;10400;53.198;6.592;2024-01-16T03:45:31;0.70;99.90
20483;DHT22;10400;53.198;6.592;2024-01-16T03:47:58;0.70;99.90
20483;DHT22;10400;53.198;6.592;2024-01-16T03:50:23;0.60;99.90
20483;DHT22;10400;53.198;6.592;2024-01-16T03:52:49;0.70;99.90
20483;DHT22;10400;53.198;6.592;2024-01-16T03:55:14;0.70;99.90
20483;DHT22;10400;53.198;6.592;2024-01-16T03:57:40;0.70;99.90
20483;DHT22;10400;53.198;6.592;2024-01-16T04:00:06;0.80;99.90
20483;DHT22;10400;53.198;6.592;2024-01-16T04:02:32;0.80;99.90
20483;DHT22;10400;53.198;6.592;2024-01-16T04:04:58;0.80;99.90
20483;DHT22;10400;53.198;6.592;2024-01-16T04:07:23;0.80;99.90
20483;DHT22;10400;53.198;6.592;2024-01-16T04:09:52;0.80;99.90
20483;DHT22;10400;53.198;6.592;2024-01-16T04:12:17;0.90;99.90
20483;DHT22;10400;53.198;6.592;2024-01-16T04:14:43;0.90;99.90
20483;DHT22;10400;53.198;6.592;2024-01-16T04:17:08;0.90;99.90
20483;DHT22;10400;53.198;6.592;2024-01-16T04:19:34;0.90;99.90
20483;DHT22;10400;53.198;6.592;2024-01-16T04:22:00;0.90;99.90
20483;DHT22;10400;53.198;6.592;2024-01-16T04:24:30;0.90;99.90
20483;DHT22;10400;53.198;6.592;2024-01-16T04:26:56;0.90;99.90
20483;DHT22;10400;53.198;6.592;2024-01-16T04:29:21;0.90;99.90
20483;DHT22;10400;53.198;6.592;2024-01-16T04:31:47;0.90;99.90
20483;DHT22;10400;53.198;6.592;2024-01-16T04:34:13;0.90;99.90
20483;DHT22;10400;53.198;6.592;2024-01-16T04:36:38;1.00;99.90
20483;DHT22;10400;53.198;6.592;2024-01-16T04:39:04;1.00;99.90
20483;DHT22;10400;53.198;6.592;2024-01-16T04:41:30;1.00;99.90
20483;DHT22;10400;53.198;6.592;2024-01-16T04:43:55;1.00;99.90
20483;DHT22;10400;53.198;6.592;2024-01-16T04:46:21;1.00;99.90
20483;DHT22;10400;53.198;6.592;2024-01-16T04:48:46;1.10;99.90
20483;DHT22;10400;53.198;6.592;2024-01-16T04:51:12;1.10;99.90
20483;DHT22;10400;53.198;6.592;2024-01-16T04:53:38;1.10;99.90
20483;DHT22;10400;53.198;6.592;2024-01-16T04:56:04;1.20;99.90
20483;DHT22;10400;53.198;6.592;2024-01-16T04:58:30;1.20;99.90
20483;DHT22;10400;53.198;6.592;2024-01-16T05:00:55;1.20;99.90
20483;DHT22;10400;53.198;6.592;2024-01-16T05:03:21;1.20;99.90
20483;DHT22;10400;53.198;6.592;2024-01-16T05:05:47;1.30;99.90
20483;DHT22;10400;53.198;6.592;2024-01-16T05:08:12;1.30;99.90
20483;DHT22;10400;53.198;6.592;2024-01-16T05:10:38;1.40;99.90
20483;DHT22;10400;53.198;6.592;2024-01-16T05:13:03;1.50;99.90
20483;DHT22;10400;53.198;6.592;2024-01-16T05:15:29;1.40;99.90
20483;DHT22;10400;53.198;6.592;2024-01-16T05:17:55;1.40;99.90
20483;DHT22;10400;53.198;6.592;2024-01-16T05:20:20;1.30;99.90
20483;DHT22;10400;53.198;6.592;2024-01-16T05:22:47;1.40;99.90
20483;DHT22;10400;53.198;6.592;2024-01-16T05:25:12;1.30;99.90
20483;DHT22;10400;53.198;6.592;2024-01-16T05:27:38;1.30;99.90
20483;DHT22;10400;53.198;6.592;2024-01-16T05:30:04;1.30;99.90
20483;DHT22;10400;53.198;6.592;2024-01-16T05:32:30;1.30;99.90
20483;DHT22;10400;53.198;6.592;2024-01-16T05:34:55;1.20;99.90
20483;DHT22;10400;53.198;6.592;2024-01-16T05:37:21;1.30;99.90
20483;DHT22;10400;53.198;6.592;2024-01-16T05:39:46;1.30;99.90
20483;DHT22;10400;53.198;6.592;2024-01-16T05:42:12;1.20;99.90
20483;DHT22;10400;53.198;6.592;2024-01-16T05:44:38;1.20;99.90
20483;DHT22;10400;53.198;6.592;2024-01-16T05:47:04;1.20;99.90
20483;DHT22;10400;53.198;6.592;2024-01-16T05:49:31;1.30;99.90
20483;DHT22;10400;53.198;6.592;2024-01-16T05:51:57;1.30;99.90
20483;DHT22;10400;53.198;6.592;2024-01-16T05:54:22;1.30;99.90
20483;DHT22;10400;53.198;6.592;2024-01-16T05:56:48;1.30;99.90
20483;DHT22;10400;53.198;6.592;2024-01-16T05:59:15;1.30;99.90
20483;DHT22;10400;53.198;6.592;2024-01-16T06:01:41;1.40;99.90
20483;DHT22;10400;53.198;6.592;2024-01-16T06:04:06;1.40;99.90
20483;DHT22;10400;53.198;6.592;2024-01-16T06:06:32;1.40;99.90
20483;DHT22;10400;53.198;6.592;2024-01-16T06:08:58;1.40;99.90
20483;DHT22;10400;53.198;6.592;2024-01-16T06:11:32;1.30;99.90
20483;DHT22;10400;53.198;6.592;2024-01-16T06:13:58;1.30;99.90
20483;DHT22;10400;53.198;6.592;2024-01-16T06:16:24;1.30;99.90
20483;DHT22;10400;53.198;6.592;2024-01-16T06:18:50;1.30;99.90
20483;DHT22;10400;53.198;6.592;2024-01-16T06:21:16;1.30;99.90
20483;DHT22;10400;53.198;6.592;2024-01-16T06:23:43;1.30;99.90
20483;DHT22;10400;53.198;6.592;2024-01-16T06:26:09;1.20;99.90
20483;DHT22;10400;53.198;6.592;2024-01-16T06:28:34;1.20;99.90
20483;DHT22;10400;53.198;6.592;2024-01-16T06:31:00;1.20;99.90
20483;DHT22;10400;53.198;6.592;2024-01-16T06:33:26;1.20;99.90
20483;DHT22;10400;53.198;6.592;2024-01-16T06:35:54;1.20;99.90
20483;DHT22;10400;53.198;6.592;2024-01-16T06:38:20;1.30;99.90
20483;DHT22;10400;53.198;6.592;2024-01-16T06:40:46;1.30;99.90
20483;DHT22;10400;53.198;6.592;2024-01-16T06:43:12;1.30;99.90
20483;DHT22;10400;53.198;6.592;2024-01-16T06:45:41;1.30;99.90
20483;DHT22;10400;53.198;6.592;2024-01-16T06:48:07;1.20;99.90
20483;DHT22;10400;53.198;6.592;2024-01-16T06:50:33;1.20;99.90
20483;DHT22;10400;53.198;6.592;2024-01-16T06:52:59;1.30;99.90
20483;DHT22;10400;53.198;6.592;2024-01-16T06:55:24;1.30;99.90
20483;DHT22;10400;53.198;6.592;2024-01-16T06:57:50;1.30;99.90
20483;DHT22;10400;53.198;6.592;2024-01-16T07:00:16;1.20;99.90
20483;DHT22;10400;53.198;6.592;2024-01-16T07:02:41;1.20;99.90
20483;DHT22;10400;53.198;6.592;2024-01-16T07:05:09;1.10;99.90
20483;DHT22;10400;53.198;6.592;2024-01-16T07:07:35;1.20;99.90
20483;DHT22;10400;53.198;6.592;2024-01-16T07:10:00;1.10;99.90
20483;DHT22;10400;53.198;6.592;2024-01-16T07:12:26;1.10;99.90
20483;DHT22;10400;53.198;6.592;2024-01-16T07:14:52;1.10;99.90
20483;DHT22;10400;53.198;6.592;2024-01-16T07:17:17;1.10;99.90
20483;DHT22;10400;53.198;6.592;2024-01-16T07:19:43;1.10;99.90
20483;DHT22;10400;53.198;6.592;2024-01-16T07:22:09;1.00;99.90
20483;DHT22;10400;53.198;6.592;2024-01-16T07:24:34;1.00;99.90
20483;DHT22;10400;53.198;6.592;2024-01-16T07:27:00;1.00;99.90
20483;DHT22;10400;53.198;6.592;2024-01-16T07:29:26;1.00;99.90
20483;DHT22;10400;53.198;6.592;2024-01-16T07:31:51;1.00;99.90
20483;DHT22;10400;53.198;6.592;2024-01-16T07:34:18;0.90;99.90
20483;DHT22;10400;53.198;6.592;2024-01-16T07:36:47;1.00;99.90
20483;DHT22;10400;53.198;6.592;2024-01-16T07:39:13;1.00;99.90
20483;DHT22;10400;53.198;6.592;2024-01-16T07:41:40;1.00;99.90
20483;DHT22;10400;53.198;6.592;2024-01-16T07:44:06;1.00;99.90
20483;DHT22;10400;53.198;6.592;2024-01-16T07:46:31;1.00;99.90
20483;DHT22;10400;53.198;6.592;2024-01-16T07:48:57;1.00;99.90
20483;DHT22;10400;53.198;6.592;2024-01-16T07:51:22;1.00;99.90
20483;DHT22;10400;53.198;6.592;2024-01-16T07:53:50;1.10;99.90
20483;DHT22;10400;53.198;6.592;2024-01-16T07:56:17;1.10;99.90
20483;DHT22;10400;53.198;6.592;2024-01-16T07:58:42;1.10;99.90
20483;DHT22;10400;53.198;6.592;2024-01-16T08:01:08;1.10;99.90
20483;DHT22;10400;53.198;6.592;2024-01-16T08:03:34;1.10;99.90
20483;DHT22;10400;53.198;6.592;2024-01-16T08:05:59;1.20;99.90
20483;DHT22;10400;53.198;6.592;2024-01-16T08:08:25;1.20;99.90
20483;DHT22;10400;53.198;6.592;2024-01-16T08:10:51;1.20;99.90
20483;DHT22;10400;53.198;6.592;2024-01-16T08:13:16;1.20;99.90
20483;DHT22;10400;53.198;6.592;2024-01-16T08:15:42;1.20;99.90
20483;DHT22;10400;53.198;6.592;2024-01-16T08:18:08;1.20;99.90
20483;DHT22;10400;53.198;6.592;2024-01-16T08:20:33;1.30;99.90
20483;DHT22;10400;53.198;6.592;2024-01-16T08:22:59;1.40;99.90
20483;DHT22;10400;53.198;6.592;2024-01-16T08:25:24;1.40;99.90
20483;DHT22;10400;53.198;6.592;2024-01-16T08:27:50;1.50;99.90
20483;DHT22;10400;53.198;6.592;2024-01-16T08:30:16;1.50;99.90
20483;DHT22;10400;53.198;6.592;2024-01-16T08:32:41;1.60;99.90
20483;DHT22;10400;53.198;6.592;2024-01-16T08:35:07;1.60;99.90
20483;DHT22;10400;53.198;6.592;2024-01-16T08:37:34;1.60;99.90
20483;DHT22;10400;53.198;6.592;2024-01-16T08:40:00;1.70;99.90
20483;DHT22;10400;53.198;6.592;2024-01-16T08:42:25;1.70;99.90
20483;DHT22;10400;53.198;6.592;2024-01-16T08:44:52;1.70;99.90
20483;DHT22;10400;53.198;6.592;2024-01-16T08:47:17;1.70;99.90
20483;DHT22;10400;53.198;6.592;2024-01-16T08:49:43;1.70;99.90
20483;DHT22;10400;53.198;6.592;2024-01-16T08:52:09;1.70;99.90
20483;DHT22;10400;53.198;6.592;2024-01-16T08:54:35;1.60;99.90
20483;DHT22;10400;53.198;6.592;2024-01-16T08:57:01;1.60;99.90
20483;DHT22;10400;53.198;6.592;2024-01-16T08:59:26;1.70;99.90
20483;DHT22;10400;53.198;6.592;2024-01-16T09:01:53;1.70;99.90
20483;DHT22;10400;53.198;6.592;2024-01-16T09:04:19;1.90;99.90
20483;DHT22;10400;53.198;6.592;2024-01-16T09:06:45;1.90;99.90
20483;DHT22;10400;53.198;6.592;2024-01-16T09:09:11;2.00;99.90
20483;DHT22;10400;53.198;6.592;2024-01-16T09:11:38;2.00;99.90
20483;DHT22;10400;53.198;6.592;2024-01-16T09:14:03;2.00;99.90
20483;DHT22;10400;53.198;6.592;2024-01-16T09:16:29;2.00;99.90
20483;DHT22;10400;53.198;6.592;2024-01-16T09:18:55;2.00;99.90
20483;DHT22;10400;53.198;6.592;2024-01-16T09:21:20;1.90;99.90
20483;DHT22;10400;53.198;6.592;2024-01-16T09:23:46;2.00;99.90
20483;DHT22;10400;53.198;6.592;2024-01-16T09:26:12;2.00;99.90
20483;DHT22;10400;53.198;6.592;2024-01-16T09:28:37;2.10;99.90
20483;DHT22;10400;53.198;6.592;2024-01-16T09:31:06;2.10;99.90
20483;DHT22;10400;53.198;6.592;2024-01-16T09:33:33;2.00;99.90
20483;DHT22;10400;53.198;6.592;2024-01-16T09:35:58;2.10;99.90
20483;DHT22;10400;53.198;6.592;2024-01-16T09:38:24;2.00;99.90
20483;DHT22;10400;53.198;6.592;2024-01-16T09:40:50;2.00;99.90
20483;DHT22;10400;53.198;6.592;2024-01-16T09:43:18;2.10;99.90
20483;DHT22;10400;53.198;6.592;2024-01-16T09:45:45;2.10;99.90
20483;DHT22;10400;53.198;6.592;2024-01-16T09:48:13;2.10;99.90
20483;DHT22;10400;53.198;6.592;2024-01-16T09:50:39;2.10;99.90
20483;DHT22;10400;53.198;6.592;2024-01-16T09:53:04;2.10;99.90
20483;DHT22;10400;53.198;6.592;2024-01-16T09:55:30;2.20;99.90
20483;DHT22;10400;53.198;6.592;2024-01-16T09:57:56;2.30;99.90
20483;DHT22;10400;53.198;6.592;2024-01-16T10:00:24;2.30;99.90
20483;DHT22;10400;53.198;6.592;2024-01-16T10:02:51;2.40;99.90
20483;DHT22;10400;53.198;6.592;2024-01-16T10:05:18;2.40;99.90
20483;DHT22;10400;53.198;6.592;2024-01-16T10:07:44;2.40;99.90
20483;DHT22;10400;53.198;6.592;2024-01-16T10:10:10;2.50;99.90
20483;DHT22;10400;53.198;6.592;2024-01-16T10:12:39;2.50;99.90
20483;DHT22;10400;53.198;6.592;2024-01-16T10:15:06;2.50;99.90
20483;DHT22;10400;53.198;6.592;2024-01-16T10:17:43;2.50;99.90
20483;DHT22;10400;53.198;6.592;2024-01-16T10:20:10;2.40;99.90
20483;DHT22;10400;53.198;6.592;2024-01-16T10:22:42;2.50;99.90
20483;DHT22;10400;53.198;6.592;2024-01-16T10:25:17;2.50;99.90
20483;DHT22;10400;53.198;6.592;2024-01-16T10:27:45;2.50;99.90
20483;DHT22;10400;53.198;6.592;2024-01-16T10:30:11;2.50;99.90
20483;DHT22;10400;53.198;6.592;2024-01-16T10:32:41;2.50;99.90
20483;DHT22;10400;53.198;6.592;2024-01-16T10:35:11;2.50;99.90
20483;DHT22;10400;53.198;6.592;2024-01-16T10:37:48;2.50;99.90
20483;DHT22;10400;53.198;6.592;2024-01-16T10:42:45;2.50;99.90
20483;DHT22;10400;53.198;6.592;2024-01-16T10:45:17;2.50;99.90
20483;DHT22;10400;53.198;6.592;2024-01-16T10:47:45;2.50;99.90
20483;DHT22;10400;53.198;6.592;2024-01-16T10:50:11;2.40;99.90
20483;DHT22;10400;53.198;6.592;2024-01-16T10:52:49;2.50;99.90
20483;DHT22;10400;53.198;6.592;2024-01-16T10:55:21;2.50;99.90
20483;DHT22;10400;53.198;6.592;2024-01-16T10:57:50;2.60;99.90
20483;DHT22;10400;53.198;6.592;2024-01-16T11:00:20;2.50;99.90
20483;DHT22;10400;53.198;6.592;2024-01-16T11:02:51;2.50;99.90
20483;DHT22;10400;53.198;6.592;2024-01-16T11:05:20;2.50;99.90
20483;DHT22;10400;53.198;6.592;2024-01-16T11:07:47;2.60;99.90
20483;DHT22;10400;53.198;6.592;2024-01-16T11:10:13;2.70;99.90
20483;DHT22;10400;53.198;6.592;2024-01-16T11:12:39;2.70;99.90
20483;DHT22;10400;53.198;6.592;2024-01-16T11:15:08;2.70;99.90
20483;DHT22;10400;53.198;6.592;2024-01-16T11:17:38;2.80;99.90
20483;DHT22;10400;53.198;6.592;2024-01-16T11:20:05;2.70;99.90
20483;DHT22;10400;53.198;6.592;2024-01-16T11:22:40;2.70;99.90
20483;DHT22;10400;53.198;6.592;2024-01-16T11:25:13;2.70;99.90
20483;DHT22;10400;53.198;6.592;2024-01-16T11:27:40;2.70;99.90
20483;DHT22;10400;53.198;6.592;2024-01-16T11:30:08;2.70;99.90
20483;DHT22;10400;53.198;6.592;2024-01-16T11:32:38;2.80;99.90
20483;DHT22;10400;53.198;6.592;2024-01-16T11:35:06;2.80;99.90
20483;DHT22;10400;53.198;6.592;2024-01-16T11:37:33;2.80;99.90
20483;DHT22;10400;53.198;6.592;2024-01-16T11:42:44;2.80;99.90
20483;DHT22;10400;53.198;6.592;2024-01-16T11:48:15;2.70;99.90
20483;DHT22;10400;53.198;6.592;2024-01-16T11:50:41;2.60;99.90
20483;DHT22;10400;53.198;6.592;2024-01-16T11:53:07;2.60;99.90
20483;DHT22;10400;53.198;6.592;2024-01-16T12:01:12;2.60;99.90
20483;DHT22;10400;53.198;6.592;2024-01-16T12:03:38;2.50;99.90
20483;DHT22;10400;53.198;6.592;2024-01-16T12:06:03;2.50;99.90
20483;DHT22;10400;53.198;6.592;2024-01-16T12:08:32;2.60;99.90
20483;DHT22;10400;53.198;6.592;2024-01-16T12:10:58;2.50;99.90
20483;DHT22;10400;53.198;6.592;2024-01-16T12:13:25;2.60;99.90
20483;DHT22;10400;53.198;6.592;2024-01-16T12:16:00;2.60;99.90
20483;DHT22;10400;53.198;6.592;2024-01-16T12:18:26;2.60;99.90
20483;DHT22;10400;53.198;6.592;2024-01-16T12:20:52;2.60;99.90
20483;DHT22;10400;53.198;6.592;2024-01-16T12:23:17;2.60;99.90
20483;DHT22;10400;53.198;6.592;2024-01-16T12:25:44;2.50;99.90
20483;DHT22;10400;53.198;6.592;2024-01-16T12:28:10;2.50;99.90
20483;DHT22;10400;53.198;6.592;2024-01-16T12:30:37;2.40;99.90
20483;DHT22;10400;53.198;6.592;2024-01-16T12:33:11;2.40;99.90
20483;DHT22;10400;53.198;6.592;2024-01-16T12:35:38;2.50;99.90
20483;DHT22;10400;53.198;6.592;2024-01-16T12:38:06;2.50;99.90
20483;DHT22;10400;53.198;6.592;2024-01-16T12:40:32;2.60;99.90
20483;DHT22;10400;53.198;6.592;2024-01-16T12:42:59;2.70;99.90
20483;DHT22;10400;53.198;6.592;2024-01-16T12:45:24;2.70;99.90
20483;DHT22;10400;53.198;6.592;2024-01-16T12:47:54;2.80;99.90
20483;DHT22;10400;53.198;6.592;2024-01-16T12:50:24;2.90;99.90
20483;DHT22;10400;53.198;6.592;2024-01-16T12:55:32;2.90;99.90
20483;DHT22;10400;53.198;6.592;2024-01-16T12:58:23;2.90;99.90
20483;DHT22;10400;53.198;6.592;2024-01-16T13:00:51;2.90;99.90
20483;DHT22;10400;53.198;6.592;2024-01-16T13:03:27;2.90;99.90
20483;DHT22;10400;53.198;6.592;2024-01-16T13:05:58;2.90;99.90
20483;DHT22;10400;53.198;6.592;2024-01-16T13:08:24;2.90;99.90
20483;DHT22;10400;53.198;6.592;2024-01-16T13:11:07;2.90;99.90
20483;DHT22;10400;53.198;6.592;2024-01-16T13:13:33;2.90;99.90
20483;DHT22;10400;53.198;6.592;2024-01-16T13:16:00;3.00;99.90
20483;DHT22;10400;53.198;6.592;2024-01-16T13:18:28;3.10;99.90
20483;DHT22;10400;53.198;6.592;2024-01-16T13:20:56;3.10;99.90
20483;DHT22;10400;53.198;6.592;2024-01-16T13:23:23;3.10;99.90
20483;DHT22;10400;53.198;6.592;2024-01-16T13:25:53;3.10;99.90
20483;DHT22;10400;53.198;6.592;2024-01-16T13:28:21;3.10;99.90
20483;DHT22;10400;53.198;6.592;2024-01-16T13:30:48;3.20;99.90
20483;DHT22;10400;53.198;6.592;2024-01-16T13:33:14;3.10;99.90
20483;DHT22;10400;53.198;6.592;2024-01-16T13:35:42;3.00;99.90
20483;DHT22;10400;53.198;6.592;2024-01-16T13:38:09;3.00;99.90
20483;DHT22;10400;53.198;6.592;2024-01-16T13:40:36;3.00;99.90
20483;DHT22;10400;53.198;6.592;2024-01-16T13:43:03;3.00;99.90
20483;DHT22;10400;53.198;6.592;2024-01-16T13:45:29;3.00;99.90
20483;DHT22;10400;53.198;6.592;2024-01-16T13:47:55;3.00;99.90
20483;DHT22;10400;53.198;6.592;2024-01-16T13:50:21;3.00;99.90
20483;DHT22;10400;53.198;6.592;2024-01-16T13:52:47;2.90;99.90
20483;DHT22;10400;53.198;6.592;2024-01-16T13:55:13;2.90;99.90
20483;DHT22;10400;53.198;6.592;2024-01-16T13:57:38;2.90;99.90
20483;DHT22;10400;53.198;6.592;2024-01-16T14:00:10;3.00;99.90
20483;DHT22;10400;53.198;6.592;2024-01-16T14:02:39;3.00;99.90
20483;DHT22;10400;53.198;6.592;2024-01-16T14:05:10;3.00;99.90
20483;DHT22;10400;53.198;6.592;2024-01-16T14:07:40;2.90;99.90
20483;DHT22;10400;53.198;6.592;2024-01-16T14:10:09;2.90;99.90
20483;DHT22;10400;53.198;6.592;2024-01-16T14:12:39;2.90;99.90
20483;DHT22;10400;53.198;6.592;2024-01-16T14:15:05;2.80;99.90
20483;DHT22;10400;53.198;6.592;2024-01-16T14:17:35;2.90;99.90
20483;DHT22;10400;53.198;6.592;2024-01-16T14:20:01;3.00;99.90
20483;DHT22;10400;53.198;6.592;2024-01-16T14:22:28;3.00;99.90
20483;DHT22;10400;53.198;6.592;2024-01-16T14:24:53;2.90;99.90
20483;DHT22;10400;53.198;6.592;2024-01-16T14:27:19;3.00;99.90
20483;DHT22;10400;53.198;6.592;2024-01-16T14:29:44;2.90;99.90
20483;DHT22;10400;53.198;6.592;2024-01-16T14:32:10;3.00;99.90
20483;DHT22;10400;53.198;6.592;2024-01-16T14:34:36;3.00;99.90
20483;DHT22;10400;53.198;6.592;2024-01-16T14:37:01;2.90;99.90
20483;DHT22;10400;53.198;6.592;2024-01-16T14:39:27;3.00;99.90
20483;DHT22;10400;53.198;6.592;2024-01-16T14:41:56;3.10;99.90
20483;DHT22;10400;53.198;6.592;2024-01-16T14:44:23;3.10;99.90
20483;DHT22;10400;53.198;6.592;2024-01-16T14:46:49;3.10;99.90
20483;DHT22;10400;53.198;6.592;2024-01-16T14:49:15;3.20;99.90
20483;DHT22;10400;53.198;6.592;2024-01-16T14:51:41;3.30;99.90
20483;DHT22;10400;53.198;6.592;2024-01-16T14:54:07;3.30;99.90
20483;DHT22;10400;53.198;6.592;2024-01-16T14:56:33;3.30;99.90
20483;DHT22;10400;53.198;6.592;2024-01-16T14:58:59;3.20;99.90
20483;DHT22;10400;53.198;6.592;2024-01-16T15:01:24;3.20;99.90
20483;DHT22;10400;53.198;6.592;2024-01-16T15:03:50;3.10;99.90
20483;DHT22;10400;53.198;6.592;2024-01-16T15:06:16;3.10;99.90
20483;DHT22;10400;53.198;6.592;2024-01-16T15:08:42;3.00;99.90
20483;DHT22;10400;53.198;6.592;2024-01-16T15:11:08;2.80;99.90
20483;DHT22;10400;53.198;6.592;2024-01-16T15:13:34;2.80;99.90
20483;DHT22;10400;53.198;6.592;2024-01-16T15:16:00;2.70;99.90
20483;DHT22;10400;53.198;6.592;2024-01-16T15:18:25;2.60;99.90
20483;DHT22;10400;53.198;6.592;2024-01-16T15:20:52;2.60;99.90
20483;DHT22;10400;53.198;6.592;2024-01-16T15:23:17;2.50;99.90
20483;DHT22;10400;53.198;6.592;2024-01-16T15:25:43;2.50;99.90
20483;DHT22;10400;53.198;6.592;2024-01-16T15:28:09;2.40;99.90
20483;DHT22;10400;53.198;6.592;2024-01-16T15:30:35;2.30;99.90
20483;DHT22;10400;53.198;6.592;2024-01-16T15:33:04;2.30;99.90
20483;DHT22;10400;53.198;6.592;2024-01-16T15:35:32;2.30;99.90
20483;DHT22;10400;53.198;6.592;2024-01-16T15:37:58;2.30;99.90
20483;DHT22;10400;53.198;6.592;2024-01-16T15:40:24;2.10;99.90
20483;DHT22;10400;53.198;6.592;2024-01-16T15:42:49;2.10;99.90
20483;DHT22;10400;53.198;6.592;2024-01-16T15:45:16;2.10;99.90
20483;DHT22;10400;53.198;6.592;2024-01-16T15:47:42;2.10;99.90
20483;DHT22;10400;53.198;6.592;2024-01-16T15:50:08;2.10;99.90
20483;DHT22;10400;53.198;6.592;2024-01-16T15:52:34;2.00;99.90
20483;DHT22;10400;53.198;6.592;2024-01-16T15:55:01;2.00;99.90
20483;DHT22;10400;53.198;6.592;2024-01-16T15:57:27;1.90;99.90